createdAt,value
2022-10-28T00:01:25.977Z,42.30
2022-10-28T00:04:01.065Z,42.40
2022-10-28T00:06:32.910Z,41.10
2022-10-28T00:09:03.775Z,40.60
2022-10-28T00:11:34.904Z,42.50
2022-10-28T00:14:06.198Z,40.70
2022-10-28T00:16:35.546Z,40.40
2022-10-28T00:19:05.846Z,41.30
2022-10-28T00:21:36.833Z,42.00
2022-10-28T00:24:06.630Z,39.70
2022-10-28T00:26:39.234Z,41.60
2022-10-28T00:29:10.193Z,39.90
2022-10-28T00:31:39.093Z,40.70
2022-10-28T00:34:11.928Z,38.70
2022-10-28T00:36:42.586Z,38.70
2022-10-28T00:39:19.587Z,38.90
2022-10-28T00:41:50.500Z,38.50
2022-10-28T00:44:37.137Z,38.60
2022-10-28T00:47:13.196Z,37.40
2022-10-28T00:49:43.120Z,36.80
2022-10-28T00:52:17.762Z,38.40
2022-10-28T00:54:46.521Z,39.10
2022-10-28T00:57:19.733Z,40.30
2022-10-28T01:13:28.638Z,43.70
2022-10-28T01:16:26.918Z,39.80
2022-10-28T01:19:34.210Z,39.40
2022-10-28T01:22:24.474Z,38.80
2022-10-28T01:25:21.705Z,40.50
2022-10-28T01:28:08.183Z,37.80
2022-10-28T01:31:15.159Z,35.40
2022-10-28T01:34:04.899Z,34.70
2022-10-28T01:37:00.937Z,35.40
2022-10-28T01:39:33.506Z,36.30
2022-10-28T01:42:10.434Z,37.20
2022-10-28T01:44:53.337Z,35.70
2022-10-28T01:47:28.790Z,35.30
2022-10-28T01:50:02.642Z,36.10
2022-10-28T01:52:32.442Z,35.90
2022-10-28T01:55:11.839Z,35.30
2022-10-28T01:57:42.182Z,34.70
2022-10-28T02:00:11.130Z,35.00
2022-10-28T02:02:43.430Z,36.70
2022-10-28T02:05:36.814Z,36.70
2022-10-28T02:08:11.219Z,32.10
2022-10-28T02:11:00.514Z,34.30
2022-10-28T02:13:44.427Z,35.20
2022-10-28T02:16:20.223Z,34.50
2022-10-28T02:19:16.391Z,36.60
2022-10-28T02:21:58.995Z,33.70
2022-10-28T02:24:45.325Z,34.20
2022-10-28T02:27:28.876Z,34.20
2022-10-28T02:30:11.520Z,31.70
2022-10-28T02:32:44.634Z,33.50
2022-10-28T02:35:25.723Z,35.50
2022-10-28T02:37:55.643Z,34.90
2022-10-28T02:40:28.043Z,33.90
2022-10-28T02:43:02.487Z,33.40
2022-10-28T02:45:54.352Z,32.90
2022-10-28T02:48:33.776Z,33.30
2022-10-28T02:51:11.995Z,33.10
2022-10-28T02:53:54.787Z,31.50
2022-10-28T02:56:23.206Z,31.00
2022-10-28T02:58:51.674Z,33.20
2022-10-28T03:01:19.913Z,32.90
2022-10-28T03:03:48.182Z,31.90
2022-10-28T03:06:16.506Z,32.20
2022-10-28T03:08:44.585Z,33.00
2022-10-28T03:11:12.638Z,33.20
2022-10-28T03:13:40.882Z,33.80
2022-10-28T03:16:10.614Z,33.60
2022-10-28T03:18:38.759Z,34.20
2022-10-28T03:21:07.698Z,33.20
2022-10-28T03:23:36.064Z,33.80
2022-10-28T03:26:04.172Z,34.10
2022-10-28T03:28:32.246Z,36.10
2022-10-28T03:31:00.462Z,32.70
2022-10-28T03:33:29.495Z,36.00
2022-10-28T03:35:57.726Z,34.60
2022-10-28T03:38:28.042Z,35.60
2022-10-28T03:40:56.330Z,33.20
2022-10-28T03:43:24.770Z,36.10
2022-10-28T03:45:53.306Z,35.90
2022-10-28T03:48:21.434Z,35.90
2022-10-28T03:50:54.210Z,35.60
2022-10-28T03:53:26.276Z,35.20
2022-10-28T03:55:57.831Z,34.80
2022-10-28T03:58:26.435Z,34.90
2022-10-28T04:00:55.341Z,33.30
2022-10-28T04:03:25.173Z,35.00
2022-10-28T04:05:53.249Z,35.40
2022-10-28T04:08:21.622Z,36.10
2022-10-28T04:10:50.481Z,33.50
2022-10-28T04:13:18.590Z,35.00
2022-10-28T04:15:46.702Z,33.00
2022-10-28T04:18:14.869Z,35.60
2022-10-28T04:20:42.892Z,35.10
2022-10-28T04:23:16.076Z,36.00
2022-10-28T04:25:44.437Z,36.20
2022-10-28T04:28:12.521Z,36.50
2022-10-28T04:30:40.582Z,36.90
2022-10-28T04:33:12.447Z,37.00
2022-10-28T04:35:42.938Z,37.00
2022-10-28T04:38:11.669Z,35.60
2022-10-28T04:40:40.409Z,38.70
2022-10-28T04:43:10.107Z,37.10
2022-10-28T04:45:39.498Z,37.20
2022-10-28T04:48:10.366Z,37.90
2022-10-28T04:50:38.565Z,40.30
2022-10-28T04:53:12.374Z,40.10
2022-10-28T04:55:40.585Z,37.60
2022-10-28T04:58:10.035Z,42.40
2022-10-28T05:00:38.128Z,43.20
2022-10-28T05:03:06.340Z,42.60
2022-10-28T05:05:34.451Z,43.80
2022-10-28T05:08:02.623Z,41.80
2022-10-28T05:10:31.937Z,41.70
2022-10-28T05:13:00.015Z,40.80
2022-10-28T05:15:28.467Z,41.00
2022-10-28T05:17:56.816Z,40.30
2022-10-28T05:20:25.177Z,41.50
2022-10-28T05:22:55.436Z,40.20
2022-10-28T05:25:24.396Z,40.30
2022-10-28T05:27:52.720Z,45.30
2022-10-28T05:30:21.084Z,43.60
2022-10-28T05:32:51.517Z,43.70
2022-10-28T05:35:23.086Z,43.50
2022-10-28T05:37:51.148Z,42.00
2022-10-28T05:40:19.651Z,43.10
2022-10-28T05:42:47.685Z,42.80
2022-10-28T05:45:16.691Z,42.70
2022-10-28T05:47:46.166Z,42.30
2022-10-28T05:50:16.665Z,43.70
2022-10-28T05:52:49.704Z,44.60
2022-10-28T05:55:19.935Z,44.10
2022-10-28T05:57:49.783Z,45.50
2022-10-28T06:00:20.021Z,44.50
2022-10-28T06:02:48.204Z,43.60
2022-10-28T06:05:17.042Z,42.00
2022-10-28T06:07:45.275Z,43.80
2022-10-28T06:10:13.311Z,42.40
2022-10-28T06:12:41.005Z,44.10
2022-10-28T06:15:09.418Z,43.50
2022-10-28T06:17:37.897Z,44.00
2022-10-28T06:20:06.440Z,42.80
2022-10-28T06:22:34.438Z,45.30
2022-10-28T06:25:02.788Z,46.30
2022-10-28T06:27:31.730Z,44.50
2022-10-28T06:29:59.898Z,42.60
2022-10-28T06:32:28.007Z,44.20
2022-10-28T06:34:56.166Z,42.90
2022-10-28T06:37:24.575Z,42.60
2022-10-28T06:39:53.109Z,43.40
2022-10-28T06:42:21.543Z,43.20
2022-10-28T06:44:50.756Z,44.20
2022-10-28T06:47:20.843Z,43.20
2022-10-28T06:49:49.594Z,44.30
2022-10-28T06:52:18.121Z,39.50
2022-10-28T06:54:46.397Z,44.20
2022-10-28T06:57:14.504Z,41.50
2022-10-28T06:59:43.129Z,41.60
2022-10-28T07:02:15.994Z,40.50
2022-10-28T07:04:44.391Z,38.70
2022-10-28T07:07:13.527Z,43.10
2022-10-28T07:09:43.929Z,41.90
2022-10-28T07:12:12.384Z,43.00
2022-10-28T07:14:40.560Z,40.70
2022-10-28T07:17:09.228Z,40.20
2022-10-28T07:19:37.693Z,41.10
2022-10-28T07:22:06.831Z,40.60
2022-10-28T07:24:35.008Z,41.10
2022-10-28T07:27:04.361Z,40.50
2022-10-28T07:29:32.842Z,41.40
2022-10-28T07:32:01.256Z,41.80
2022-10-28T07:34:29.380Z,41.80
2022-10-28T07:36:58.655Z,40.80
2022-10-28T07:39:26.958Z,41.30
2022-10-28T07:41:55.218Z,42.10
2022-10-28T07:44:23.323Z,40.80
2022-10-28T07:46:54.317Z,39.00
2022-10-28T07:49:25.589Z,39.60
2022-10-28T07:51:53.721Z,40.20
2022-10-28T07:54:21.929Z,39.30
2022-10-28T07:56:50.143Z,39.40
2022-10-28T07:59:25.821Z,39.30
2022-10-28T08:01:55.545Z,40.00
2022-10-28T08:04:23.784Z,37.90
2022-10-28T08:06:51.917Z,38.80
2022-10-28T08:09:19.981Z,38.20
2022-10-28T08:11:48.176Z,37.10
2022-10-28T08:14:16.272Z,37.20
2022-10-28T08:16:45.703Z,37.50
2022-10-28T08:19:13.816Z,38.20
2022-10-28T08:21:41.884Z,37.00
2022-10-28T08:24:09.997Z,36.70
2022-10-28T08:26:38.048Z,37.10
2022-10-28T08:29:07.735Z,36.80
2022-10-28T08:31:35.856Z,35.90
2022-10-28T08:34:05.424Z,37.20
2022-10-28T08:36:33.860Z,35.80
2022-10-28T08:39:03.153Z,32.00
2022-10-28T08:41:44.760Z,36.30
2022-10-28T08:44:31.609Z,34.50
2022-10-28T08:47:25.738Z,35.80
2022-10-28T08:50:02.546Z,35.30
2022-10-28T08:52:41.925Z,33.60
2022-10-28T08:55:20.078Z,36.50
2022-10-28T08:57:52.931Z,41.10
2022-10-28T09:00:26.413Z,35.30
2022-10-28T09:03:12.731Z,33.80
2022-10-28T09:05:50.675Z,31.50
2022-10-28T09:08:23.827Z,30.70
2022-10-28T09:11:10.399Z,31.40
2022-10-28T09:13:47.736Z,30.70
2022-10-28T09:16:37.862Z,28.70
2022-10-28T09:19:15.509Z,27.30
2022-10-28T09:22:02.301Z,25.80
2022-10-28T09:24:39.643Z,26.20
2022-10-28T09:27:34.503Z,24.80
2022-10-28T09:30:27.261Z,25.30
2022-10-28T09:32:55.563Z,23.40
2022-10-28T09:35:44.669Z,20.10
2022-10-28T09:38:35.077Z,22.40
2022-10-28T09:41:41.599Z,22.60
2022-10-28T09:44:49.669Z,22.60
2022-10-28T09:47:23.692Z,22.90
2022-10-28T09:49:57.315Z,22.20
2022-10-28T09:52:30.784Z,21.80
2022-10-28T09:55:03.498Z,21.70
2022-10-28T09:57:49.317Z,20.00
2022-10-28T10:00:35.098Z,18.60
2022-10-28T10:03:20.715Z,19.40
2022-10-28T10:05:52.168Z,20.40
2022-10-28T10:08:22.847Z,20.20
2022-10-28T10:10:56.642Z,20.00
2022-10-28T10:13:30.960Z,19.80
2022-10-28T10:16:13.886Z,20.30
2022-10-28T10:18:47.278Z,20.50
2022-10-28T10:21:16.748Z,21.90
2022-10-28T10:23:44.838Z,21.00
2022-10-28T10:26:14.751Z,19.50
2022-10-28T10:28:49.405Z,20.60
2022-10-28T10:31:35.299Z,21.50
2022-10-28T10:34:25.386Z,21.50
2022-10-28T10:36:56.163Z,20.00
2022-10-28T10:39:28.751Z,22.50
2022-10-28T10:41:56.941Z,21.30
2022-10-28T10:44:35.498Z,20.50
2022-10-28T10:47:06.219Z,21.60
2022-10-28T10:49:35.933Z,20.50
2022-10-28T10:52:04.620Z,20.40
2022-10-28T10:54:34.622Z,24.00
2022-10-28T10:57:20.477Z,20.70
2022-10-28T10:59:54.415Z,22.90
2022-10-28T11:02:27.903Z,22.10
2022-10-28T11:05:01.652Z,21.60
2022-10-28T11:09:58.597Z,22.40
2022-10-28T11:12:53.273Z,21.90
2022-10-28T11:15:26.904Z,23.70
2022-10-28T11:17:58.376Z,24.00
2022-10-28T11:20:38.265Z,24.40
2022-10-28T11:23:39.259Z,23.90
2022-10-28T11:26:26.181Z,25.70
2022-10-28T11:29:00.273Z,25.40
2022-10-28T11:32:05.005Z,25.10
2022-10-28T11:34:52.126Z,27.80
2022-10-28T11:37:50.810Z,27.30
2022-10-28T11:40:22.370Z,28.90
2022-10-28T11:43:15.325Z,25.30
2022-10-28T11:46:20.745Z,29.60
2022-10-28T11:49:11.477Z,28.50
2022-10-28T11:52:12.465Z,30.10
2022-10-28T11:55:14.469Z,28.50
2022-10-28T12:01:14.743Z,27.70
2022-10-28T12:04:13.695Z,28.10
2022-10-28T12:07:02.550Z,27.30
2022-10-28T12:09:30.583Z,28.60
2022-10-28T12:12:22.924Z,28.70
2022-10-28T12:15:12.740Z,28.50
2022-10-28T12:18:09.943Z,27.40
2022-10-28T12:20:45.491Z,29.20
2022-10-28T12:23:18.340Z,27.20
2022-10-28T12:25:50.136Z,28.90
2022-10-28T12:28:55.598Z,29.40
2022-10-28T12:31:34.703Z,28.40
2022-10-28T12:34:10.231Z,28.50
2022-10-28T12:36:45.248Z,30.20
2022-10-28T12:39:20.083Z,30.20
2022-10-28T12:42:00.880Z,30.60
2022-10-28T12:44:31.412Z,31.60
2022-10-28T12:47:05.688Z,30.30
2022-10-28T12:50:10.700Z,31.90
2022-10-28T12:53:02.314Z,31.40
2022-10-28T12:55:58.699Z,31.60
2022-10-28T12:58:53.373Z,29.30
2022-10-28T13:01:39.734Z,31.10
2022-10-28T13:04:12.920Z,29.50
2022-10-28T13:06:53.102Z,30.50
2022-10-28T13:09:58.760Z,31.20
2022-10-28T13:12:59.952Z,31.10
2022-10-28T13:15:56.685Z,30.10
2022-10-28T13:18:53.676Z,31.10
2022-10-28T13:21:30.968Z,32.00
2022-10-28T13:24:44.233Z,30.00
2022-10-28T13:27:30.568Z,28.70
2022-10-28T13:30:00.561Z,29.00
2022-10-28T13:32:35.785Z,27.40
2022-10-28T13:35:25.238Z,27.60
2022-10-28T13:37:55.339Z,27.80
2022-10-28T13:40:43.827Z,26.50
2022-10-28T13:43:51.481Z,26.20
2022-10-28T13:46:57.478Z,25.80
2022-10-28T13:50:08.708Z,24.40
2022-10-28T13:55:14.426Z,24.60
2022-10-28T13:57:46.706Z,24.70
2022-10-28T14:00:17.866Z,24.50
2022-10-28T14:02:58.651Z,24.70
2022-10-28T14:05:36.062Z,24.90
2022-10-28T14:08:35.835Z,25.70
2022-10-28T14:11:06.115Z,23.60
2022-10-28T14:13:47.819Z,24.90
2022-10-28T14:16:37.794Z,24.20
2022-10-28T14:19:17.202Z,25.20
2022-10-28T14:22:06.505Z,24.80
2022-10-28T14:24:39.651Z,26.90
2022-10-28T14:27:15.494Z,29.70
2022-10-28T14:29:56.347Z,27.70
2022-10-28T14:32:49.415Z,26.10
2022-10-28T14:35:29.326Z,27.80
2022-10-28T14:38:22.429Z,26.70
2022-10-28T14:41:35.471Z,23.80
2022-10-28T14:44:07.027Z,25.40
2022-10-28T14:46:44.233Z,25.90
2022-10-28T14:49:26.943Z,26.50
2022-10-28T14:51:56.870Z,26.80
2022-10-28T14:54:35.343Z,26.40
2022-10-28T14:57:06.238Z,31.40
2022-10-28T14:59:41.000Z,29.00
2022-10-28T15:02:27.682Z,29.70
2022-10-28T15:05:13.606Z,35.70
2022-10-28T15:07:42.679Z,29.10
2022-10-28T15:10:29.675Z,30.50
2022-10-28T15:12:59.034Z,31.10
2022-10-28T15:15:53.498Z,30.20
2022-10-28T15:18:25.919Z,28.20
2022-10-28T15:21:17.151Z,30.80
2022-10-28T15:26:16.911Z,28.50
2022-10-28T15:28:45.125Z,29.70
2022-10-28T15:31:30.690Z,28.70
2022-10-28T15:33:58.718Z,29.60
2022-10-28T15:36:27.326Z,30.80
2022-10-28T15:39:15.195Z,30.50
2022-10-28T15:42:02.577Z,30.60
2022-10-28T15:44:55.828Z,32.40
2022-10-28T15:47:45.138Z,33.50
2022-10-28T15:50:36.947Z,31.60
2022-10-28T15:53:11.189Z,32.50
2022-10-28T15:58:35.948Z,32.00
2022-10-28T16:01:09.819Z,32.20
2022-10-28T16:03:42.815Z,33.80
2022-10-28T16:06:26.676Z,34.70
2022-10-28T16:08:59.850Z,34.60
2022-10-28T16:11:29.213Z,38.10
2022-10-28T16:13:58.443Z,37.40
2022-10-28T16:16:32.884Z,37.10
2022-10-28T16:19:09.691Z,36.20
2022-10-28T16:21:39.031Z,35.90
2022-10-28T16:24:09.728Z,36.00
2022-10-28T16:27:19.182Z,35.00
2022-10-28T16:29:48.764Z,35.30
2022-10-28T16:32:20.005Z,35.80
2022-10-28T16:34:48.448Z,35.50
2022-10-28T16:37:35.136Z,33.90
2022-10-28T16:40:03.451Z,34.20
2022-10-28T16:42:32.055Z,35.70
2022-10-28T16:45:00.102Z,37.60
2022-10-28T16:47:29.220Z,35.30
2022-10-28T16:50:16.052Z,38.30
2022-10-28T16:52:44.344Z,36.90
2022-10-28T16:55:17.032Z,38.00
2022-10-28T16:57:45.292Z,38.10
2022-10-28T17:00:14.166Z,37.90
2022-10-28T17:02:43.165Z,38.10
2022-10-28T17:05:20.215Z,37.10
2022-10-28T17:07:49.507Z,36.50
2022-10-28T17:10:18.103Z,36.60
2022-10-28T17:13:03.602Z,37.50
2022-10-28T17:15:52.806Z,37.30
2022-10-28T17:18:38.882Z,36.20
2022-10-28T17:21:07.253Z,36.20
2022-10-28T17:23:35.502Z,36.20
2022-10-28T17:26:21.357Z,37.00
2022-10-28T17:28:52.949Z,36.90
2022-10-28T17:31:24.913Z,35.80
2022-10-28T17:34:12.509Z,36.30
2022-10-28T17:36:41.064Z,36.80
2022-10-28T17:39:15.278Z,37.80
2022-10-28T17:41:45.395Z,37.20
2022-10-28T17:44:31.323Z,37.60
2022-10-28T17:46:59.755Z,35.70
2022-10-28T17:49:28.292Z,36.20
2022-10-28T17:51:56.472Z,34.60
2022-10-28T17:56:57.961Z,32.30
2022-10-28T17:59:43.881Z,34.20
2022-10-28T18:02:14.603Z,33.80
2022-10-28T18:04:45.406Z,33.30
2022-10-28T18:07:13.697Z,32.30
2022-10-28T18:09:45.935Z,33.70
2022-10-28T18:12:14.228Z,33.00
2022-10-28T18:14:42.555Z,33.70
2022-10-28T18:17:14.536Z,34.50
2022-10-28T18:20:02.209Z,34.40
2022-10-28T18:22:30.981Z,38.20
2022-10-28T18:24:59.246Z,34.30
2022-10-28T18:27:30.798Z,33.60
2022-10-28T18:30:16.418Z,33.40
2022-10-28T18:32:44.750Z,32.60
2022-10-28T18:35:30.286Z,34.10
2022-10-28T18:38:01.543Z,32.40
2022-10-28T18:40:29.898Z,32.10
2022-10-28T18:42:57.998Z,32.30
2022-10-28T18:45:26.266Z,32.30
2022-10-28T18:47:54.949Z,31.90
2022-10-28T18:50:23.550Z,32.60
2022-10-28T18:53:09.277Z,35.10
2022-10-28T18:55:37.669Z,32.50
2022-10-28T18:58:05.968Z,34.10
2022-10-28T19:00:53.162Z,33.60
2022-10-28T19:03:39.704Z,31.90
2022-10-28T19:06:15.814Z,32.70
2022-10-28T19:09:04.206Z,31.90
2022-10-28T19:11:49.935Z,32.30
2022-10-28T19:14:36.118Z,33.00
2022-10-28T19:17:22.161Z,31.00
2022-10-28T19:19:51.647Z,33.20
2022-10-28T19:22:19.841Z,32.80
2022-10-28T19:24:48.433Z,34.10
2022-10-28T19:27:16.823Z,34.40
2022-10-28T19:29:45.057Z,33.90
2022-10-28T19:32:13.180Z,34.10
2022-10-28T19:34:59.014Z,41.40
2022-10-28T19:37:27.755Z,34.20
2022-10-28T19:39:56.643Z,32.90
2022-10-28T19:42:25.807Z,32.60
2022-10-28T19:44:55.936Z,34.10
2022-10-28T19:47:24.195Z,32.00
2022-10-28T19:49:52.340Z,32.90
2022-10-28T19:52:20.892Z,32.50
2022-10-28T19:55:08.799Z,32.00
2022-10-28T19:57:40.558Z,32.00
2022-10-28T20:00:10.052Z,33.10
2022-10-28T20:02:43.101Z,33.70
2022-10-28T20:05:11.386Z,33.30
2022-10-28T20:07:57.572Z,34.00
2022-10-28T20:10:25.925Z,34.20
2022-10-28T20:12:54.555Z,35.30
2022-10-28T20:15:23.097Z,34.00
2022-10-28T20:17:51.651Z,30.70
2022-10-28T20:20:20.573Z,34.90
2022-10-28T20:22:48.965Z,33.30
2022-10-28T20:25:17.453Z,33.70
2022-10-28T20:27:45.845Z,33.50
2022-10-28T20:30:31.513Z,32.80
2022-10-28T20:32:59.685Z,32.60
2022-10-28T20:35:45.051Z,31.70
2022-10-28T20:38:13.340Z,33.10
2022-10-28T20:40:41.722Z,32.50
2022-10-28T20:43:09.852Z,32.90
2022-10-28T20:45:38.982Z,32.40
2022-10-28T20:48:07.208Z,32.70
2022-10-28T20:50:35.473Z,32.80
2022-10-28T20:53:03.666Z,33.20
2022-10-28T20:55:32.002Z,33.70
2022-10-28T20:58:00.175Z,32.90
2022-10-28T21:00:28.717Z,32.60
2022-10-28T21:02:57.315Z,33.20
2022-10-28T21:05:26.004Z,32.30
2022-10-28T21:07:54.942Z,32.20
2022-10-28T21:10:23.979Z,31.60
2022-10-28T21:13:09.968Z,32.10
2022-10-28T21:15:39.976Z,31.30
2022-10-28T21:18:26.952Z,32.50
2022-10-28T21:20:57.452Z,31.10
2022-10-28T21:23:27.815Z,32.60
2022-10-28T21:26:01.356Z,32.70
2022-10-28T21:28:30.998Z,32.80
2022-10-28T21:31:07.702Z,31.10
2022-10-28T21:33:37.086Z,32.70
2022-10-28T21:36:11.065Z,31.60
2022-10-28T21:38:39.911Z,32.80
2022-10-28T21:41:13.247Z,32.20
2022-10-28T21:43:44.263Z,32.30
2022-10-28T21:46:13.123Z,31.00
2022-10-28T21:49:01.038Z,32.30
2022-10-28T21:51:47.096Z,31.90
2022-10-28T21:54:34.148Z,32.50
2022-10-28T21:57:02.847Z,31.30
2022-10-28T21:59:32.575Z,34.10
2022-10-28T22:02:01.358Z,35.00
2022-10-28T22:04:47.676Z,32.60
2022-10-28T22:07:16.307Z,33.30
2022-10-28T22:09:44.729Z,33.70
2022-10-28T22:12:30.818Z,33.10
2022-10-28T22:14:59.316Z,33.10
2022-10-28T22:17:29.496Z,34.70
2022-10-28T22:19:57.760Z,34.20
2022-10-28T22:22:43.669Z,33.10
2022-10-28T22:25:11.796Z,34.50
2022-10-28T22:27:40.137Z,36.00
2022-10-28T22:30:09.196Z,34.50
2022-10-28T22:32:54.959Z,33.30
2022-10-28T22:35:23.305Z,33.30
2022-10-28T22:38:08.701Z,32.70
2022-10-28T22:40:37.116Z,31.40
2022-10-28T22:43:05.470Z,32.00
2022-10-28T22:45:33.836Z,29.80
2022-10-28T22:48:19.332Z,30.70
2022-10-28T22:50:47.493Z,30.60
2022-10-28T22:53:15.544Z,28.20
2022-10-28T22:55:43.589Z,29.80
2022-10-28T22:58:12.006Z,29.20
2022-10-28T23:00:40.029Z,30.50
2022-10-28T23:03:08.348Z,28.20
2022-10-28T23:05:36.673Z,30.20
2022-10-28T23:08:04.865Z,29.60
2022-10-28T23:10:50.858Z,29.30
2022-10-28T23:13:18.913Z,30.00
2022-10-28T23:15:47.053Z,28.10
2022-10-28T23:18:15.104Z,28.90
2022-10-28T23:20:43.608Z,30.00
2022-10-28T23:23:29.344Z,28.70
2022-10-28T23:25:57.543Z,29.60
2022-10-28T23:28:25.809Z,29.90
2022-10-28T23:30:53.901Z,28.30
2022-10-28T23:33:22.133Z,30.10
2022-10-28T23:35:55.190Z,28.70
2022-10-28T23:38:41.392Z,29.60
2022-10-28T23:41:12.461Z,30.30
2022-10-28T23:43:40.633Z,29.60
2022-10-28T23:46:26.832Z,27.60
2022-10-28T23:48:54.960Z,29.80
2022-10-28T23:51:40.835Z,29.10
2022-10-28T23:54:09.346Z,28.40
2022-10-28T23:56:37.892Z,28.50
2022-10-28T23:59:05.951Z,28.80
